Details for Qantas Freight at YMML




Go Back


Latest METAR
Local Time

YMML 241400Z 18012KT 9999 FEW021 BKN038 17/08 Q1010

25/02/2018, 01:04:16

Description
Results
Qantas Freight Logo
Number of Pilots based at YMML
0 Pilots Based here
Number of Qantas Freight Flights Departed from YMML
0 Flights Departed
Number of Qantas Freight Flights Arrived at YMML
0 Flights Arrived
Number of Qantas Freight Schedules Departing from YMML
0 Schedules
Number of Qantas Freight Schedules Arriving at YMML
0 Schedules
Number of Qantas Freight Schedules Departing from YMML availible today
0 Schedules Today
Number of Qantas Freight Schedules Arriving at YMML availible today
0 Schedules Today
Average Landing Rate at YMML
-240 fpm
Qantas Freight Average Landing Rate at YMML
0 fpm
Total Fuel Purchased at YMML by Qantas Freight
0.00 kgs / 0.00 lbs

Pilots Based at YMML


Pilot ID
Pilot Name
Pilot Rank
No. of Flights
No. of Flying Hours
There are no pilots assigned to this hub!   Will you be the first?
Content